Time;durP1;ratioP1;P1;durP2;ratioP2;P2;SDS_P1;SDS_P2;PMS_P1;PMS_P2;Temp;Humidity;BMP_temperature;BMP_pressure;BME280_temperature;BME280_humidity;BME280_pressure;Samples;Min_cycle;Max_cycle;Signal;HPM_P1;HPM_P2
2021/04/08 00:02:18;;;;;;;16.98;2.55;;;;;;;2.65;100.00;100802.63;5185395;28;20032;-81
2021/04/08 00:04:48;;;;;;;17.98;2.22;;;;;;;2.64;99.54;100789.72;5169460;28;20034;-80
2021/04/08 00:07:19;;;;;;;16.77;2.60;;;;;;;2.57;99.61;100800.91;5181120;28;20040;-80
2021/04/08 00:09:49;;;;;;;20.40;2.63;;;;;;;2.55;100.00;100797.50;5175075;28;20030;-80
2021/04/08 00:12:19;;;;;;;16.15;2.80;;;;;;;2.66;100.00;100793.19;5161441;28;20030;-80
2021/04/08 00:14:50;;;;;;;15.50;3.00;;;;;;;2.63;100.00;100808.66;5182511;28;20025;-80
2021/04/08 00:17:20;;;;;;;14.25;2.70;;;;;;;2.61;99.48;100800.06;5190597;28;20046;-80
2021/04/08 00:19:50;;;;;;;14.90;2.90;;;;;;;2.70;99.23;100797.50;5191813;28;20022;-79
2021/04/08 00:22:21;;;;;;;13.60;2.78;;;;;;;2.60;99.19;100806.06;5188100;28;20038;-80
2021/04/08 00:24:51;;;;;;;18.90;2.58;;;;;;;2.68;99.16;100810.38;5195734;28;20041;-79
2021/04/08 00:27:21;;;;;;;12.88;2.45;;;;;;;2.75;99.32;100816.41;5195452;28;20030;-80
2021/04/08 00:29:51;;;;;;;15.38;2.58;;;;;;;2.76;98.66;100833.59;5173497;28;20096;-80
2021/04/08 00:32:22;;;;;;;17.40;2.83;;;;;;;2.70;99.23;100834.44;5194536;28;20040;-80
2021/04/08 00:34:52;;;;;;;12.73;2.25;;;;;;;2.73;99.05;100838.75;5191197;28;20045;-80
2021/04/08 00:37:22;;;;;;;15.57;2.60;;;;;;;2.71;98.71;100843.91;5177491;28;20056;-80
2021/04/08 00:39:54;;;;;;;19.42;3.42;;;;;;;2.71;99.54;100843.06;5202762;28;20047;-80
2021/04/08 00:42:24;;;;;;;13.48;2.65;;;;;;;2.75;99.55;100852.50;5169153;28;20056;-81
2021/04/08 00:44:54;;;;;;;14.45;2.90;;;;;;;2.69;99.24;100852.53;5175517;28;20030;-80
2021/04/08 00:47:25;;;;;;;13.63;2.90;;;;;;;2.67;99.66;100857.66;5167536;28;20519;-80
2021/04/08 00:49:55;;;;;;;14.15;2.50;;;;;;;2.67;99.71;100862.00;5166870;28;20040;-79
2021/04/08 00:52:26;;;;;;;18.05;3.00;;;;;;;2.66;99.50;100858.53;5173937;28;20029;-80
2021/04/08 00:54:56;;;;;;;19.95;3.40;;;;;;;2.70;99.43;100873.16;5191760;28;20109;-81
2021/04/08 00:57:26;;;;;;;14.20;3.40;;;;;;;2.69;99.26;100868.00;5179921;28;20021;-79
2021/04/08 00:59:58;;;;;;;17.98;2.70;;;;;;;2.64;99.29;100864.53;5162558;28;20018;-81
2021/04/08 01:02:28;;;;;;;12.68;3.00;;;;;;;2.63;99.60;100867.97;5186079;28;20133;-80
2021/04/08 01:05:00;;;;;;;14.50;2.88;;;;;;;2.61;99.96;100870.56;5176024;28;20018;-80
2021/04/08 01:07:33;;;;;;;20.52;3.22;;;;;;;2.70;99.76;100878.31;5182570;28;20021;-81
2021/04/08 01:10:08;;;;;;;15.25;3.03;;;;;;;2.67;99.74;100874.88;5180623;28;20038;-81
2021/04/08 01:12:38;;;;;;;18.55;3.13;;;;;;;2.64;99.49;100877.44;5187120;28;20041;-81
2021/04/08 01:15:10;;;;;;;15.82;3.17;;;;;;;2.68;99.66;100882.59;5155852;28;20030;-81
2021/04/08 01:17:53;;;;;;;14.55;3.00;;;;;;;2.65;99.72;100890.34;5174437;28;20034;-81
2021/04/08 01:20:38;;;;;;;15.15;3.05;;;;;;;2.50;99.99;100887.75;5158655;28;20033;-81
2021/04/08 01:23:36;;;;;;;15.75;2.75;;;;;;;2.68;100.00;100894.66;5176121;28;20069;-81
2021/04/08 01:26:18;;;;;;;15.65;2.40;;;;;;;2.63;100.00;100901.50;5188188;28;20038;-81
2021/04/08 01:29:16;;;;;;;19.63;3.17;;;;;;;2.55;99.69;100895.50;5176195;28;20296;-81
2021/04/08 01:31:49;;;;;;;15.63;2.72;;;;;;;2.50;100.00;100894.63;5175033;28;20045;-81
2021/04/08 01:34:21;;;;;;;14.05;3.03;;;;;;;2.39;100.00;100901.47;5154297;28;20025;-82
2021/04/08 01:36:56;;;;;;;19.15;2.80;;;;;;;2.44;100.00;100910.06;5168022;28;20025;-81
2021/04/08 01:39:27;;;;;;;22.52;3.00;;;;;;;2.49;100.00;100916.13;5160224;28;20015;-81
2021/04/08 01:41:59;;;;;;;23.08;3.30;;;;;;;2.40;100.00;100916.97;5157966;28;20122;-81
2021/04/08 01:44:31;;;;;;;18.45;2.90;;;;;;;2.44;100.00;100922.97;5176289;28;20034;-81
2021/04/08 01:47:04;;;;;;;15.75;2.50;;;;;;;2.35;100.00;100920.38;5180818;28;20026;-81
2021/04/08 01:49:39;;;;;;;21.08;3.03;;;;;;;2.40;100.00;100919.56;5159174;28;20034;-81
2021/04/08 01:52:15;;;;;;;23.33;3.10;;;;;;;2.38;99.80;100925.53;5187564;28;20029;-81
2021/04/08 01:54:50;;;;;;;23.42;2.65;;;;;;;2.38;99.59;100928.13;5181195;28;20042;-81
2021/04/08 01:57:22;;;;;;;19.23;2.80;;;;;;;2.27;99.53;100924.66;5172988;28;20026;-81
2021/04/08 01:59:54;;;;;;;18.20;3.03;;;;;;;2.36;100.00;100930.69;5178537;28;20196;-81
2021/04/08 02:02:26;;;;;;;15.65;2.78;;;;;;;2.35;99.28;100928.97;5156087;28;20095;-81
2021/04/08 02:04:57;;;;;;;27.42;2.80;;;;;;;2.50;99.21;100933.31;5174164;28;20022;-81
2021/04/08 02:07:27;;;;;;;18.77;2.78;;;;;;;2.38;98.98;100929.00;5180266;28;20611;-81
2021/04/08 02:09:58;;;;;;;17.88;2.97;;;;;;;2.40;99.09;100936.72;5176188;28;20112;-81
2021/04/08 02:12:29;;;;;;;17.13;2.85;;;;;;;2.43;98.81;100941.88;5173711;28;20029;-81
2021/04/08 02:15:01;;;;;;;18.77;2.80;;;;;;;2.38;98.76;100941.03;5177961;28;20018;-81
2021/04/08 02:17:34;;;;;;;22.38;2.80;;;;;;;2.23;98.65;100939.25;5161145;28;20038;-81
2021/04/08 02:20:14;;;;;;;22.63;3.50;;;;;;;2.22;98.93;100941.81;5173488;28;20022;-81
2021/04/08 02:22:47;;;;;;;18.85;2.58;;;;;;;2.23;98.71;100939.25;5157843;28;20551;-81
2021/04/08 02:25:19;;;;;;;18.17;2.50;;;;;;;2.28;98.83;100936.69;5179472;28;20030;-81
2021/04/08 02:27:51;;;;;;;17.85;3.13;;;;;;;2.25;98.99;100932.38;5173531;28;20041;-81
2021/04/08 02:30:24;;;;;;;18.10;2.92;;;;;;;2.14;98.92;100935.78;5156048;28;20045;-81
2021/04/08 02:32:55;;;;;;;22.23;3.17;;;;;;;2.14;99.55;100949.53;5176916;28;20515;-81
2021/04/08 02:35:25;;;;;;;17.15;3.00;;;;;;;2.11;99.42;100946.06;5176030;28;20025;-81
2021/04/08 02:37:55;;;;;;;18.13;3.17;;;;;;;2.13;99.67;100952.13;5173444;28;20032;-81
2021/04/08 02:40:26;;;;;;;19.58;2.67;;;;;;;2.15;99.79;100947.81;5174798;28;20113;-81
2021/04/08 02:42:56;;;;;;;19.15;2.85;;;;;;;2.09;99.68;100955.50;5176159;28;20026;-81
2021/04/08 02:45:26;;;;;;;19.58;2.97;;;;;;;2.04;100.00;100962.38;5173725;28;20137;-81
2021/04/08 02:47:57;;;;;;;15.50;2.90;;;;;;;2.13;99.73;100963.28;5176552;28;20113;-81
2021/04/08 02:50:27;;;;;;;20.48;3.22;;;;;;;2.15;99.99;100971.88;5187348;22;20545;-79
2021/04/08 02:53:05;;;;;;;23.30;3.25;;;;;;;2.11;99.87;100966.69;5197752;28;20053;-78
2021/04/08 02:55:43;;;;;;;20.05;2.83;;;;;;;2.10;99.49;100967.53;5194737;28;20518;-80
2021/04/08 02:58:15;;;;;;;23.20;3.08;;;;;;;2.16;98.98;100983.06;5192593;28;20033;-79
2021/04/08 03:01:09;;;;;;;16.50;2.63;;;;;;;2.17;99.34;100984.78;5189800;28;20025;-80
2021/04/08 03:03:50;;;;;;;20.70;3.13;;;;;;;2.12;99.01;100989.91;5197917;28;20517;-78
2021/04/08 03:06:21;;;;;;;18.67;2.67;;;;;;;2.10;98.91;100989.03;5193064;28;20634;-78
2021/04/08 03:08:54;;;;;;;18.35;2.38;;;;;;;2.18;99.15;100999.38;5187209;28;20114;-78
2021/04/08 03:11:34;;;;;;;19.20;2.65;;;;;;;2.21;99.17;100996.81;5190690;28;20116;-78
2021/04/08 03:14:07;;;;;;;20.17;2.67;;;;;;;2.12;98.84;101007.06;5195800;28;20084;-78
2021/04/08 03:16:40;;;;;;;23.58;2.92;;;;;;;2.15;98.68;101007.09;5190292;28;20143;-80
2021/04/08 03:19:15;;;;;;;20.80;2.88;;;;;;;2.29;98.38;101018.31;5189342;28;20032;-79
2021/04/08 03:21:47;;;;;;;21.27;2.65;;;;;;;2.17;98.61;101019.13;5188622;28;20044;-80
2021/04/08 03:24:20;;;;;;;28.75;2.90;;;;;;;2.33;97.96;101007.19;5189046;28;20475;-80
2021/04/08 03:26:51;;;;;;;17.35;2.45;;;;;;;2.29;98.21;101015.75;5189913;28;20035;-78
2021/04/08 03:29:21;;;;;;;17.23;2.25;;;;;;;2.29;97.93;101020.91;5192009;28;20391;-78
2021/04/08 03:31:52;;;;;;;13.95;2.20;;;;;;;2.22;98.24;101019.16;5195351;28;20048;-79
2021/04/08 03:34:23;;;;;;;24.05;2.65;;;;;;;2.27;97.69;101022.63;5185430;28;20108;-78
2021/04/08 03:36:53;;;;;;;17.80;2.35;;;;;;;2.16;98.30;101025.16;5189367;28;20037;-79
2021/04/08 03:39:24;;;;;;;14.25;2.50;;;;;;;2.10;98.68;101024.25;5179621;28;20112;-80
2021/04/08 03:41:55;;;;;;;23.25;2.88;;;;;;;2.03;98.64;101025.06;5189016;28;20026;-78
2021/04/08 03:44:28;;;;;;;14.25;2.33;;;;;;;2.08;99.04;101032.00;5193039;28;20025;-79
2021/04/08 03:46:59;;;;;;;20.38;2.95;;;;;;;2.00;99.29;101027.63;5193762;28;20480;-78
2021/04/08 03:49:31;;;;;;;16.65;2.60;;;;;;;1.92;100.00;101025.03;5190960;28;20387;-81
2021/04/08 03:52:06;;;;;;;21.02;3.38;;;;;;;1.97;99.33;101028.47;5198612;28;20029;-79
2021/04/08 03:54:37;;;;;;;18.60;3.33;;;;;;;2.05;99.22;101025.94;5194370;28;20048;-79
2021/04/08 03:57:12;;;;;;;18.02;2.63;;;;;;;1.97;98.84;101027.63;5186731;28;20104;-80
2021/04/08 03:59:46;;;;;;;21.63;3.43;;;;;;;2.01;99.66;101039.66;5192718;28;20025;-80
2021/04/08 04:02:17;;;;;;;15.90;2.90;;;;;;;1.90;99.64;101037.03;5193501;28;20026;-81
2021/04/08 04:04:49;;;;;;;24.10;3.70;;;;;;;1.76;100.00;101034.34;5192576;28;20044;-80
2021/04/08 04:07:20;;;;;;;16.65;3.03;;;;;;;1.87;100.00;101039.59;5199842;28;20032;-79
2021/04/08 04:09:50;;;;;;;16.58;3.28;;;;;;;1.92;100.00;101039.59;5197021;28;20045;-78
2021/04/08 04:12:21;;;;;;;22.23;3.30;;;;;;;1.90;100.00;101044.75;5197999;28;20060;-79
2021/04/08 04:14:55;;;;;;;21.40;3.90;;;;;;;1.94;100.00;101037.88;5196582;28;20086;-78
2021/04/08 04:17:26;;;;;;;17.55;3.22;;;;;;;1.86;100.00;101050.72;5189960;28;20030;-79
2021/04/08 04:19:58;;;;;;;20.20;3.40;;;;;;;1.81;100.00;101052.41;5197146;28;20488;-81
2021/04/08 04:22:28;;;;;;;19.52;3.40;;;;;;;1.87;100.00;101047.31;5190581;28;20037;-78
2021/04/08 04:24:59;;;;;;;13.30;2.78;;;;;;;1.86;100.00;101055.03;5197362;28;20079;-78
2021/04/08 04:27:29;;;;;;;22.73;3.08;;;;;;;1.72;100.00;101050.63;5197545;28;20058;-81
2021/04/08 04:30:00;;;;;;;18.55;3.70;;;;;;;1.71;100.00;101060.06;5196098;28;20071;-79
2021/04/08 04:32:30;;;;;;;19.30;3.28;;;;;;;1.69;100.00;101051.47;5193801;28;20037;-78
2021/04/08 04:35:01;;;;;;;17.23;3.28;;;;;;;1.72;100.00;101061.78;5197029;28;20018;-79
2021/04/08 04:37:32;;;;;;;20.27;3.25;;;;;;;1.79;100.00;101061.84;5192743;28;20052;-79
2021/04/08 04:40:05;;;;;;;19.92;3.42;;;;;;;1.67;100.00;101068.63;5200770;28;20502;-78
2021/04/08 04:42:36;;;;;;;17.52;3.22;;;;;;;1.69;100.00;101072.06;5177085;28;20086;-81
2021/04/08 04:45:07;;;;;;;26.75;3.47;;;;;;;1.72;100.00;101073.81;5190779;28;20025;-79
2021/04/08 04:47:44;;;;;;;15.88;3.25;;;;;;;1.65;100.00;101084.91;5190989;28;20629;-78
2021/04/08 04:50:14;;;;;;;18.60;3.58;;;;;;;1.71;100.00;101080.69;5194582;28;20053;-80
2021/04/08 04:52:45;;;;;;;19.00;3.15;;;;;;;1.68;100.00;101084.94;5194701;28;20077;-81
2021/04/08 04:55:15;;;;;;;19.63;3.38;;;;;;;1.66;100.00;101084.06;5195225;28;20059;-80
2021/04/08 04:57:45;;;;;;;23.85;3.47;;;;;;;1.76;100.00;101089.28;5199613;28;20086;-80
2021/04/08 05:00:16;;;;;;;24.70;3.33;;;;;;;1.80;100.00;101096.22;5197658;28;20048;-79
2021/04/08 05:02:47;;;;;;;13.10;2.90;;;;;;;1.85;100.00;101092.78;5195513;28;20077;-79
2021/04/08 05:05:17;;;;;;;14.00;3.13;;;;;;;1.87;100.00;101090.25;5193014;28;20026;-80
2021/04/08 05:07:47;;;;;;;17.35;3.15;;;;;;;1.86;100.00;101101.41;5193163;28;20033;-79
2021/04/08 05:10:18;;;;;;;18.58;3.10;;;;;;;1.88;100.00;101104.84;5197795;28;20029;-79
2021/04/08 05:12:48;;;;;;;12.43;2.55;;;;;;;1.87;100.00;101108.28;5188159;28;20399;-80
2021/04/08 05:15:18;;;;;;;18.75;3.30;;;;;;;1.97;100.00;101110.09;5194335;28;20036;-81
2021/04/08 05:17:48;;;;;;;16.48;2.63;;;;;;;2.02;99.78;101111.81;5190910;28;20427;-79
2021/04/08 05:20:19;;;;;;;17.77;2.70;;;;;;;2.13;99.52;101117.94;5195539;28;20037;-80
2021/04/08 05:22:49;;;;;;;14.43;2.58;;;;;;;2.17;99.63;101116.25;5195843;28;20026;-82
2021/04/08 05:25:20;;;;;;;19.75;2.92;;;;;;;2.25;99.03;101127.44;5195085;28;20049;-79
2021/04/08 05:27:50;;;;;;;17.15;2.90;;;;;;;2.16;99.22;101128.25;5192445;28;20026;-79
2021/04/08 05:30:20;;;;;;;14.80;2.90;;;;;;;2.38;99.36;101124.09;5194774;28;20026;-79
2021/04/08 05:32:51;;;;;;;16.40;3.03;;;;;;;2.40;99.13;101124.97;5174372;28;20428;-79
2021/04/08 05:35:21;;;;;;;17.67;3.08;;;;;;;2.44;98.48;101135.31;5195613;28;20108;-79
2021/04/08 05:37:51;;;;;;;22.20;3.28;;;;;;;2.48;98.14;101136.22;5203408;28;20116;-81
2021/04/08 05:40:22;;;;;;;17.92;2.90;;;;;;;2.61;97.51;101133.69;5169574;28;20099;-81
2021/04/08 05:42:52;;;;;;;15.45;2.88;;;;;;;2.54;97.35;101144.81;5194500;28;20489;-79
2021/04/08 05:45:26;;;;;;;22.48;2.85;;;;;;;2.67;96.76;101143.19;5195907;28;20029;-80
2021/04/08 05:47:56;;;;;;;17.85;2.97;;;;;;;2.73;95.89;101153.53;5195524;28;20029;-79
2021/04/08 05:50:26;;;;;;;15.88;2.95;;;;;;;2.80;95.91;101155.28;5191357;28;20033;-79
2021/04/08 05:52:57;;;;;;;15.18;2.80;;;;;;;2.61;96.54;101151.75;5194721;28;20037;-79
2021/04/08 05:55:27;;;;;;;16.63;3.38;;;;;;;2.67;96.88;101146.63;5190754;28;20050;-80
2021/04/08 05:57:58;;;;;;;15.88;3.00;;;;;;;2.70;96.38;101163.84;5195169;28;20029;-80
2021/04/08 06:00:28;;;;;;;18.33;2.90;;;;;;;2.67;96.56;101163.84;5190441;28;20103;-81
2021/04/08 06:02:59;;;;;;;16.23;3.40;;;;;;;2.89;96.24;101165.66;5190719;28;20061;-79
2021/04/08 06:05:29;;;;;;;18.13;3.33;;;;;;;2.91;96.52;101175.16;5190785;28;20029;-79
2021/04/08 06:07:59;;;;;;;12.52;3.03;;;;;;;3.15;95.87;101179.53;5194592;28;20418;-79
2021/04/08 06:10:29;;;;;;;17.45;3.15;;;;;;;3.22;95.64;101178.72;5194325;28;20075;-79
2021/04/08 06:13:00;;;;;;;13.98;3.22;;;;;;;3.35;95.51;101177.91;5192570;28;20029;-79
2021/04/08 06:15:31;;;;;;;13.35;2.83;;;;;;;3.61;94.43;101177.94;5185469;28;20044;-80
2021/04/08 06:18:01;;;;;;;17.00;2.95;;;;;;;3.89;93.23;101190.06;5191794;28;20032;-81
2021/04/08 06:20:31;;;;;;;21.90;3.70;;;;;;;3.58;93.47;101194.31;5193990;28;20598;-79
2021/04/08 06:23:03;;;;;;;16.67;3.08;;;;;;;3.46;95.06;101191.69;5189778;28;20032;-80
2021/04/08 06:25:34;;;;;;;17.20;3.15;;;;;;;3.36;95.11;101192.53;5191616;28;20686;-80
2021/04/08 06:28:04;;;;;;;17.70;3.55;;;;;;;3.37;95.01;101196.84;5192660;28;20026;-80
2021/04/08 06:30:35;;;;;;;24.13;3.28;;;;;;;3.32;96.08;101201.97;5193683;28;20033;-80
2021/04/08 06:33:05;;;;;;;15.68;3.22;;;;;;;3.51;94.76;101205.50;5192194;28;20125;-79
2021/04/08 06:35:36;;;;;;;12.75;2.55;;;;;;;3.50;95.30;101201.19;5194900;28;20048;-81
2021/04/08 06:38:07;;;;;;;16.63;2.92;;;;;;;3.41;95.24;101217.53;5192349;28;20087;-79
2021/04/08 06:40:37;;;;;;;16.00;2.90;;;;;;;3.23;96.58;101226.91;5197086;28;20598;-79
2021/04/08 06:43:10;;;;;;;18.67;2.97;;;;;;;3.31;95.87;101214.88;5193044;28;20702;-79
2021/04/08 06:45:47;;;;;;;14.95;2.97;;;;;;;3.35;96.44;101224.38;5191679;28;20409;-80
2021/04/08 06:48:21;;;;;;;14.68;2.50;;;;;;;3.54;95.26;101226.16;5194051;28;20048;-81
2021/04/08 06:50:54;;;;;;;12.50;2.97;;;;;;;3.59;95.49;101221.00;5191031;28;20033;-80
2021/04/08 06:53:26;;;;;;;13.25;2.90;;;;;;;3.78;94.83;101227.94;5194476;28;20036;-81
2021/04/08 06:55:58;;;;;;;12.20;2.40;;;;;;;3.96;93.88;101225.38;5194601;28;20021;-81
2021/04/08 06:58:28;;;;;;;14.55;2.90;;;;;;;3.93;93.69;101233.16;5190857;28;20057;-80
2021/04/08 07:00:59;;;;;;;15.02;2.95;;;;;;;4.04;93.62;101231.44;5194775;28;20498;-80
2021/04/08 07:03:29;;;;;;;14.65;3.42;;;;;;;4.03;93.51;101229.72;5190986;28;20061;-80
2021/04/08 07:05:59;;;;;;;17.33;3.15;;;;;;;4.15;92.99;101236.63;5175221;28;20079;-79
2021/04/08 07:08:31;;;;;;;17.65;3.22;;;;;;;4.22;92.69;101233.16;5194432;28;20033;-79
2021/04/08 07:11:02;;;;;;;13.13;3.17;;;;;;;4.41;92.42;101237.47;5192282;28;20072;-79
2021/04/08 07:13:33;;;;;;;19.15;2.83;;;;;;;4.60;91.25;101236.63;5190436;28;20107;-79
2021/04/08 07:16:03;;;;;;;17.77;3.20;;;;;;;4.67;91.10;101239.19;5183065;28;20025;-81
2021/04/08 07:18:34;;;;;;;15.05;2.85;;;;;;;4.71;90.79;101245.22;5188800;28;20032;-79
2021/04/08 07:21:04;;;;;;;17.55;2.90;;;;;;;4.48;89.00;101240.06;5190371;28;20175;-80
2021/04/08 07:23:35;;;;;;;24.95;3.38;;;;;;;4.70;89.13;101241.78;5191355;28;20048;-79
2021/04/08 07:26:07;;;;;;;13.45;2.58;;;;;;;5.09;88.23;101246.88;5190510;28;20030;-79
2021/04/08 07:28:42;;;;;;;17.08;2.75;;;;;;;5.73;84.63;101248.34;5181787;28;20037;-79
2021/04/08 07:31:30;;;;;;;15.32;3.20;;;;;;;5.73;85.52;101250.94;5191373;28;20042;-81
2021/04/08 07:34:03;;;;;;;17.13;2.78;;;;;;;5.66;84.66;101241.47;5192544;28;20034;-80
2021/04/08 07:36:35;;;;;;;18.63;3.03;;;;;;;6.25;83.49;101245.44;5190476;28;20033;-81
2021/04/08 07:39:14;;;;;;;14.43;2.35;;;;;;;6.16;82.97;101247.22;5191147;28;20042;-79
2021/04/08 07:41:59;;;;;;;17.17;3.03;;;;;;;5.66;83.92;101252.72;5186792;28;20403;-79
2021/04/08 07:44:29;;;;;;;12.15;2.38;;;;;;;5.81;84.41;101257.84;5191032;28;20029;-80
2021/04/08 07:46:59;;;;;;;13.00;2.30;;;;;;;5.33;85.24;101267.53;5193132;28;20029;-80
2021/04/08 07:49:33;;;;;;;16.27;2.63;;;;;;;5.82;85.34;101269.94;5183428;28;20095;-81
2021/04/08 07:52:20;;;;;;;18.90;2.50;;;;;;;5.68;85.96;101271.72;5174154;28;20057;-80
2021/04/08 07:55:03;;;;;;;14.77;2.95;;;;;;;5.40;85.33;101282.19;5171904;28;20380;-79
2021/04/08 07:57:58;;;;;;;14.32;2.63;;;;;;;5.46;86.05;101280.44;5174459;28;20041;-80
2021/04/08 08:00:35;;;;;;;12.80;2.47;;;;;;;5.42;86.21;101283.06;5186884;28;20052;-80
2021/04/08 08:03:07;;;;;;;13.23;2.45;;;;;;;5.16;85.41;101282.25;5187662;28;20119;-79
2021/04/08 08:05:42;;;;;;;16.10;2.70;;;;;;;5.12;86.36;101282.28;5190407;28;20025;-81
2021/04/08 08:08:22;;;;;;;14.50;2.55;;;;;;;5.29;87.04;101278.78;5188890;28;20042;-79
2021/04/08 08:10:58;;;;;;;13.32;2.97;;;;;;;5.19;87.26;101282.25;5189561;28;20041;-80
2021/04/08 08:13:29;;;;;;;15.25;3.05;;;;;;;5.26;87.00;101283.97;5189121;28;20028;-81
2021/04/08 08:16:01;;;;;;;15.95;2.80;;;;;;;5.19;87.02;101284.00;5191198;28;20043;-80
2021/04/08 08:18:37;;;;;;;14.65;2.70;;;;;;;5.43;85.53;101292.56;5191364;28;20448;-79
2021/04/08 08:21:09;;;;;;;20.70;3.50;;;;;;;5.72;85.29;101290.72;5172925;28;20076;-79
2021/04/08 08:23:48;;;;;;;13.70;2.65;;;;;;;5.64;85.15;101289.88;5191785;28;20033;-79
2021/04/08 08:26:33;;;;;;;18.67;2.72;;;;;;;5.63;85.38;101298.50;5191992;28;20033;-79
2021/04/08 08:29:06;;;;;;;12.93;2.72;;;;;;;5.48;85.44;101307.22;5193429;28;20471;-79
2021/04/08 08:31:42;;;;;;;15.15;2.50;;;;;;;5.41;85.67;101312.44;5191165;28;20043;-80
2021/04/08 08:34:17;;;;;;;21.45;3.00;;;;;;;5.37;85.70;101307.25;5190212;28;20491;-81
2021/04/08 08:36:52;;;;;;;18.70;2.43;;;;;;;5.36;85.15;101314.16;5190272;28;20041;-81
2021/04/08 08:39:24;;;;;;;15.75;2.40;;;;;;;5.41;86.24;101318.47;5192680;28;20431;-79
2021/04/08 08:41:57;;;;;;;14.98;2.45;;;;;;;5.29;85.85;101322.81;5191946;28;20026;-81
2021/04/08 08:44:28;;;;;;;13.65;2.55;;;;;;;5.43;85.58;101321.91;5188294;28;20029;-79
2021/04/08 08:47:05;;;;;;;14.45;2.40;;;;;;;5.47;85.26;101322.78;5189152;28;20034;-79
2021/04/08 08:49:41;;;;;;;11.73;2.75;;;;;;;5.76;85.33;101319.19;5191074;28;20053;-79
2021/04/08 08:52:17;;;;;;;11.95;2.67;;;;;;;5.51;85.00;101327.06;5191980;28;20034;-79
2021/04/08 08:54:49;;;;;;;15.88;2.50;;;;;;;5.71;83.51;101323.53;5192543;28;20147;-78
2021/04/08 08:57:20;;;;;;;18.75;2.97;;;;;;;5.69;82.93;101321.81;5194679;28;20116;-79
2021/04/08 08:59:51;;;;;;;15.90;2.83;;;;;;;6.05;83.60;101324.31;5192739;28;20396;-80
2021/04/08 09:02:22;;;;;;;14.32;2.47;;;;;;;6.22;81.84;101330.25;5195723;28;20037;-80
2021/04/08 09:04:53;;;;;;;12.65;2.67;;;;;;;6.08;81.63;101332.06;5192016;28;20030;-78
2021/04/08 09:07:26;;;;;;;12.32;2.40;;;;;;;6.49;82.21;101327.47;5191939;28;20030;-79
2021/04/08 09:10:02;;;;;;;10.18;3.30;;;;;;;6.78;81.21;101333.31;5187113;28;20057;-79
2021/04/08 09:12:33;;;;;;;16.85;2.80;;;;;;;6.35;81.76;101334.47;5192360;28;20479;-78
2021/04/08 09:15:05;;;;;;;15.70;2.38;;;;;;;6.32;82.32;101340.56;5193606;28;20067;-79
2021/04/08 09:17:48;;;;;;;14.18;3.05;;;;;;;6.06;83.06;101341.59;5193197;28;20029;-78
2021/04/08 09:20:19;;;;;;;13.93;3.03;;;;;;;6.10;82.61;101340.69;5192274;28;20018;-78
2021/04/08 09:22:52;;;;;;;11.02;2.80;;;;;;;6.50;83.69;101342.16;5191582;28;20642;-79
2021/04/08 09:25:58;;;;;;;13.68;2.92;;;;;;;6.71;80.53;101334.22;5191036;28;20167;-78
2021/04/08 09:28:39;;;;;;;13.15;3.10;;;;;;;7.13;79.03;101329.50;5191756;28;20045;-79
2021/04/08 09:31:24;;;;;;;12.75;2.50;;;;;;;7.28;77.64;101323.31;5195429;28;20042;-80
2021/04/08 09:33:54;;;;;;;14.07;2.63;;;;;;;6.98;76.83;101326.19;5194727;28;20033;-79
2021/04/08 09:36:25;;;;;;;8.77;2.30;;;;;;;7.04;78.78;101324.41;5192011;28;20034;-80
2021/04/08 09:38:55;;;;;;;11.00;2.95;;;;;;;7.06;78.09;101322.66;5191619;28;20272;-79
2021/04/08 09:41:51;;;;;;;10.47;2.20;;;;;;;7.19;77.03;101328.59;5195159;28;20120;-78
2021/04/08 09:44:23;;;;;;;10.43;2.08;;;;;;;7.06;75.80;101332.16;5195276;28;20770;-78
2021/04/08 09:46:56;;;;;;;13.27;3.58;;;;;;;7.13;75.76;101331.25;5190700;28;20025;-78
2021/04/08 09:49:41;;;;;;;10.23;2.33;;;;;;;6.86;75.02;101328.91;5194683;28;20101;-79
2021/04/08 09:52:13;;;;;;;12.57;2.75;;;;;;;6.76;76.10;101322.91;5190774;28;20104;-79
2021/04/08 09:54:44;;;;;;;15.05;3.90;;;;;;;6.47;75.67;101329.22;5194878;28;20030;-78
2021/04/08 09:57:33;;;;;;;10.45;2.25;;;;;;;6.12;79.79;101336.34;5192390;28;20048;-80
2021/04/08 10:00:07;;;;;;;10.00;2.72;;;;;;;5.80;82.21;101339.13;5187086;28;20037;-79
2021/04/08 10:02:39;;;;;;;9.75;2.58;;;;;;;5.74;83.13;101348.63;5195959;28;20033;-79
2021/04/08 10:05:11;;;;;;;10.95;2.78;;;;;;;5.77;84.37;101339.06;5191187;28;20034;-79
2021/04/08 10:07:50;;;;;;;9.98;2.75;;;;;;;5.92;83.84;101323.47;5189777;28;20037;-80
2021/04/08 10:10:25;;;;;;;13.68;2.33;;;;;;;6.31;82.95;101327.59;5176345;28;20026;-79
2021/04/08 10:12:55;;;;;;;14.23;2.58;;;;;;;6.39;82.66;101329.25;5190091;28;20044;-78
2021/04/08 10:15:36;;;;;;;11.88;2.03;;;;;;;6.75;80.72;101316.00;5193512;28;20029;-79
2021/04/08 10:18:13;;;;;;;12.25;2.08;;;;;;;6.98;78.73;101303.69;5194194;28;20030;-78
2021/04/08 10:20:45;;;;;;;11.00;1.80;;;;;;;7.07;76.55;101311.38;5192839;28;20029;-79
2021/04/08 10:23:30;;;;;;;8.38;1.92;;;;;;;7.09;74.98;101316.56;5172261;28;20036;-78
2021/04/08 10:26:07;;;;;;;7.10;1.40;;;;;;;7.52;74.73;101318.72;5191220;28;20029;-80
2021/04/08 10:28:41;;;;;;;7.75;1.85;;;;;;;7.92;74.41;101312.13;5191908;28;20132;-80
2021/04/08 10:31:21;;;;;;;10.02;2.10;;;;;;;7.56;73.63;101321.22;5191920;28;20037;-79
2021/04/08 10:34:01;;;;;;;14.45;2.30;;;;;;;7.54;73.92;101325.59;5192124;28;20055;-80
2021/04/08 10:36:33;;;;;;;11.57;1.90;;;;;;;6.91;75.08;101337.53;5193222;28;20037;-80
2021/04/08 10:39:11;;;;;;;11.38;1.80;;;;;;;6.74;75.57;101336.81;5195209;28;20025;-79
2021/04/08 10:42:01;;;;;;;7.97;1.70;;;;;;;6.69;75.13;101336.84;5191411;28;20021;-79
2021/04/08 10:44:34;;;;;;;8.10;1.92;;;;;;;6.66;73.32;101346.38;5190732;28;20287;-79
2021/04/08 10:47:14;;;;;;;10.07;1.92;;;;;;;6.52;73.70;101338.69;5192138;28;20099;-78
2021/04/08 10:49:49;;;;;;;9.38;1.58;;;;;;;6.60;74.77;101338.66;5191490;28;20522;-80
2021/04/08 10:52:21;;;;;;;6.55;1.70;;;;;;;6.65;75.13;101337.75;5193375;28;20021;-80
2021/04/08 10:54:54;;;;;;;9.85;1.83;;;;;;;6.66;74.77;101342.06;5190122;28;20045;-80
2021/04/08 10:57:25;;;;;;;11.07;1.75;;;;;;;6.77;74.77;101337.63;5192243;28;20414;-80
2021/04/08 10:59:55;;;;;;;8.73;2.10;;;;;;;6.90;73.45;101341.00;5192759;28;20108;-81
2021/04/08 11:02:29;;;;;;;8.15;1.60;;;;;;;6.98;73.88;101344.38;5191043;28;20100;-80
2021/04/08 11:05:05;;;;;;;7.15;1.50;;;;;;;6.77;72.25;101347.16;5191150;28;20022;-80
2021/04/08 11:07:37;;;;;;;12.70;1.83;;;;;;;6.81;73.01;101356.66;5193688;28;20044;-80
2021/04/08 11:10:16;;;;;;;5.13;1.45;;;;;;;6.54;75.09;101344.75;5194246;28;20190;-80
2021/04/08 11:12:49;;;;;;;10.27;1.88;;;;;;;6.85;75.93;101353.16;5189493;28;20096;-80
2021/04/08 11:15:24;;;;;;;5.75;1.55;;;;;;;6.83;75.44;101347.09;5192625;28;20037;-80
2021/04/08 11:17:59;;;;;;;10.00;1.83;;;;;;;6.98;74.38;101349.59;5190539;28;20117;-80
2021/04/08 11:20:35;;;;;;;7.15;1.67;;;;;;;6.78;72.56;101346.28;5193480;28;20056;-80
2021/04/08 11:23:06;;;;;;;8.68;1.90;;;;;;;6.74;73.64;101349.81;5190595;28;20041;-80
2021/04/08 11:25:38;;;;;;;6.30;1.38;;;;;;;6.56;71.95;101345.59;5192336;28;20033;-79
2021/04/08 11:28:08;;;;;;;7.88;1.95;;;;;;;6.80;72.80;101352.34;5195590;28;20022;-79
2021/04/08 11:30:41;;;;;;;11.25;2.10;;;;;;;7.10;72.76;101346.88;5190528;28;20479;-78
2021/04/08 11:33:20;;;;;;;12.38;1.90;;;;;;;7.01;72.05;101346.94;5190692;28;20623;-79
2021/04/08 11:35:51;;;;;;;7.40;1.90;;;;;;;7.14;71.51;101344.22;5190495;28;20033;-80
2021/04/08 11:38:23;;;;;;;8.48;2.03;;;;;;;7.37;72.14;101340.53;5192413;28;20030;-81
2021/04/08 11:41:00;;;;;;;7.45;1.90;;;;;;;7.12;69.15;101343.38;5191904;28;20029;-79
2021/04/08 11:43:42;;;;;;;10.98;2.17;;;;;;;7.14;70.70;101340.78;5201391;28;20116;-77
2021/04/08 11:46:35;;;;;;;9.88;2.50;;;;;;;6.96;70.89;101356.53;5191843;28;20610;-80
2021/04/08 11:49:16;;;;;;;10.05;2.80;;;;;;;6.61;71.78;101362.00;5192005;28;20026;-81
2021/04/08 11:51:48;;;;;;;9.00;3.95;;;;;;;6.30;70.35;101364.81;5191308;28;20061;-81
2021/04/08 11:54:20;;;;;;;11.35;3.00;;;;;;;6.40;70.96;101366.47;5192251;28;20565;-80